sensor_id;sensor_type;location;lat;lon;timestamp;pressure;altitude;pressure_sealevel;temperature;humidity
49529;BME280;35423;37.320;-121.762;2023-08-17T00:01:50;99480.36;;;51.70;7.72
49529;BME280;35423;37.320;-121.762;2023-08-17T00:04:25;99477.87;;;51.83;7.77
49529;BME280;35423;37.320;-121.762;2023-08-17T00:06:58;99481.46;;;51.30;7.84
49529;BME280;35423;37.320;-121.762;2023-08-17T00:09:19;99486.58;;;51.25;7.91
49529;BME280;35423;37.320;-121.762;2023-08-17T00:11:58;99489.01;;;51.01;8.05
49529;BME280;35423;37.320;-121.762;2023-08-17T00:14:16;99495.56;;;51.14;8.08
49529;BME280;35423;37.320;-121.762;2023-08-17T00:16:42;99491.58;;;50.76;8.12
49529;BME280;35423;37.320;-121.762;2023-08-17T00:19:07;99495.35;;;50.99;8.19
49529;BME280;35423;37.320;-121.762;2023-08-17T00:21:36;99495.77;;;51.01;8.23
49529;BME280;35423;37.320;-121.762;2023-08-17T00:24:04;99488.85;;;51.04;8.15
49529;BME280;35423;37.320;-121.762;2023-08-17T00:26:34;99477.53;;;51.00;8.21
49529;BME280;35423;37.320;-121.762;2023-08-17T00:29:03;99468.35;;;50.92;8.22
49529;BME280;35423;37.320;-121.762;2023-08-17T00:31:30;99464.66;;;50.74;8.27
49529;BME280;35423;37.320;-121.762;2023-08-17T00:33:57;99474.27;;;50.63;8.31
49529;BME280;35423;37.320;-121.762;2023-08-17T00:36:23;99474.95;;;50.44;8.37
49529;BME280;35423;37.320;-121.762;2023-08-17T00:38:49;99473.19;;;50.40;8.45
49529;BME280;35423;37.320;-121.762;2023-08-17T00:41:19;99472.09;;;50.61;8.50
49529;BME280;35423;37.320;-121.762;2023-08-17T00:43:48;99472.62;;;50.28;8.52
49529;BME280;35423;37.320;-121.762;2023-08-17T00:46:16;99468.59;;;50.40;8.49
49529;BME280;35423;37.320;-121.762;2023-08-17T00:48:50;99462.09;;;50.58;8.40
49529;BME280;35423;37.320;-121.762;2023-08-17T00:51:17;99461.24;;;50.94;8.35
49529;BME280;35423;37.320;-121.762;2023-08-17T00:53:42;99458.92;;;50.84;8.34
49529;BME280;35423;37.320;-121.762;2023-08-17T00:56:11;99460.91;;;50.14;8.46
49529;BME280;35423;37.320;-121.762;2023-08-17T00:58:37;99465.23;;;50.23;8.63
49529;BME280;35423;37.320;-121.762;2023-08-17T01:01:05;99456.68;;;49.84;8.74
49529;BME280;35423;37.320;-121.762;2023-08-17T01:03:36;99452.28;;;49.34;8.84
49529;BME280;35423;37.320;-121.762;2023-08-17T01:06:01;99445.49;;;49.23;8.96
49529;BME280;35423;37.320;-121.762;2023-08-17T01:08:37;99447.70;;;49.14;9.06
49529;BME280;35423;37.320;-121.762;2023-08-17T01:11:08;99451.17;;;49.03;9.16
49529;BME280;35423;37.320;-121.762;2023-08-17T01:13:35;99455.31;;;48.76;9.27
49529;BME280;35423;37.320;-121.762;2023-08-17T01:15:56;99459.82;;;48.56;9.33
49529;BME280;35423;37.320;-121.762;2023-08-17T01:18:26;99459.86;;;48.35;9.45
49529;BME280;35423;37.320;-121.762;2023-08-17T01:20:48;99457.89;;;48.11;9.43
49529;BME280;35423;37.320;-121.762;2023-08-17T01:23:13;99456.19;;;47.97;9.51
49529;BME280;35423;37.320;-121.762;2023-08-17T01:25:39;99456.52;;;47.98;9.59
49529;BME280;35423;37.320;-121.762;2023-08-17T01:28:08;99456.67;;;47.53;9.68
49529;BME280;35423;37.320;-121.762;2023-08-17T01:30:46;99451.01;;;47.52;9.76
49529;BME280;35423;37.320;-121.762;2023-08-17T01:33:03;99448.81;;;46.93;9.82
49529;BME280;35423;37.320;-121.762;2023-08-17T01:35:33;99444.05;;;47.11;9.93
49529;BME280;35423;37.320;-121.762;2023-08-17T01:37:53;99439.95;;;46.87;10.02
49529;BME280;35423;37.320;-121.762;2023-08-17T01:40:19;99436.34;;;46.96;10.09
49529;BME280;35423;37.320;-121.762;2023-08-17T01:42:46;99438.56;;;46.79;10.13
49529;BME280;35423;37.320;-121.762;2023-08-17T01:45:14;99446.13;;;46.70;10.16
49529;BME280;35423;37.320;-121.762;2023-08-17T01:47:39;99446.94;;;46.70;10.21
49529;BME280;35423;37.320;-121.762;2023-08-17T01:50:08;99446.42;;;46.48;10.29
49529;BME280;35423;37.320;-121.762;2023-08-17T01:52:33;99449.87;;;46.28;10.39
49529;BME280;35423;37.320;-121.762;2023-08-17T01:54:58;99458.21;;;46.00;10.45
49529;BME280;35423;37.320;-121.762;2023-08-17T01:57:24;99462.65;;;45.59;10.45
49529;BME280;35423;37.320;-121.762;2023-08-17T01:59:50;99469.38;;;45.49;10.59
49529;BME280;35423;37.320;-121.762;2023-08-17T02:02:21;99471.51;;;45.34;10.65
49529;BME280;35423;37.320;-121.762;2023-08-17T02:04:47;99473.49;;;45.46;10.70
49529;BME280;35423;37.320;-121.762;2023-08-17T02:07:13;99468.45;;;45.11;10.72
49529;BME280;35423;37.320;-121.762;2023-08-17T02:09:39;99465.44;;;45.54;10.75
49529;BME280;35423;37.320;-121.762;2023-08-17T02:12:08;99460.20;;;45.15;10.82
49529;BME280;35423;37.320;-121.762;2023-08-17T02:14:41;99457.74;;;45.29;10.87
49529;BME280;35423;37.320;-121.762;2023-08-17T02:17:13;99455.69;;;45.21;10.92
49529;BME280;35423;37.320;-121.762;2023-08-17T02:19:42;99457.33;;;45.10;10.96
49529;BME280;35423;37.320;-121.762;2023-08-17T02:22:09;99459.08;;;44.43;11.03
49529;BME280;35423;37.320;-121.762;2023-08-17T02:24:36;99455.63;;;45.01;11.05
49529;BME280;35423;37.320;-121.762;2023-08-17T02:27:02;99453.26;;;44.78;11.12
49529;BME280;35423;37.320;-121.762;2023-08-17T02:29:28;99450.55;;;44.86;11.17
49529;BME280;35423;37.320;-121.762;2023-08-17T02:32:01;99446.99;;;44.17;11.29
49529;BME280;35423;37.320;-121.762;2023-08-17T02:34:29;99448.05;;;44.59;11.36
49529;BME280;35423;37.320;-121.762;2023-08-17T02:36:56;99449.23;;;43.90;11.45
49529;BME280;35423;37.320;-121.762;2023-08-17T02:39:25;99449.67;;;44.26;11.48
49529;BME280;35423;37.320;-121.762;2023-08-17T02:41:57;99447.02;;;43.58;11.55
49529;BME280;35423;37.320;-121.762;2023-08-17T02:44:25;99443.93;;;44.27;11.54
49529;BME280;35423;37.320;-121.762;2023-08-17T02:46:52;99445.68;;;44.05;11.61
49529;BME280;35423;37.320;-121.762;2023-08-17T02:49:17;99449.69;;;44.09;11.65
49529;BME280;35423;37.320;-121.762;2023-08-17T02:51:43;99450.59;;;43.33;11.75
49529;BME280;35423;37.320;-121.762;2023-08-17T02:54:09;99449.32;;;43.23;11.77
49529;BME280;35423;37.320;-121.762;2023-08-17T02:56:35;99450.12;;;43.52;11.86
49529;BME280;35423;37.320;-121.762;2023-08-17T02:59:01;99448.57;;;43.16;11.95
49529;BME280;35423;37.320;-121.762;2023-08-17T03:01:26;99447.34;;;43.24;12.06
49529;BME280;35423;37.320;-121.762;2023-08-17T03:03:57;99446.08;;;43.18;12.16
49529;BME280;35423;37.320;-121.762;2023-08-17T03:06:22;99447.61;;;43.03;12.29
49529;BME280;35423;37.320;-121.762;2023-08-17T03:08:47;99449.96;;;42.87;12.44
49529;BME280;35423;37.320;-121.762;2023-08-17T03:11:14;99456.57;;;42.67;12.55
49529;BME280;35423;37.320;-121.762;2023-08-17T03:13:49;99460.99;;;42.66;12.68
49529;BME280;35423;37.320;-121.762;2023-08-17T03:16:21;99466.36;;;42.68;12.80
49529;BME280;35423;37.320;-121.762;2023-08-17T03:18:51;99471.55;;;42.27;12.92
49529;BME280;35423;37.320;-121.762;2023-08-17T03:21:16;99470.88;;;42.07;13.08
49529;BME280;35423;37.320;-121.762;2023-08-17T03:23:52;99475.18;;;42.18;13.24
49529;BME280;35423;37.320;-121.762;2023-08-17T03:26:18;99470.91;;;41.96;13.47
49529;BME280;35423;37.320;-121.762;2023-08-17T03:29:06;99472.93;;;41.84;13.69
49529;BME280;35423;37.320;-121.762;2023-08-17T03:31:35;99476.21;;;41.20;13.95
49529;BME280;35423;37.320;-121.762;2023-08-17T03:34:01;99477.60;;;41.79;14.19
49529;BME280;35423;37.320;-121.762;2023-08-17T03:36:27;99481.93;;;41.40;14.34
49529;BME280;35423;37.320;-121.762;2023-08-17T03:38:56;99485.07;;;41.38;14.52
49529;BME280;35423;37.320;-121.762;2023-08-17T03:41:22;99493.18;;;41.20;14.66
49529;BME280;35423;37.320;-121.762;2023-08-17T03:43:54;99495.73;;;41.28;14.71
49529;BME280;35423;37.320;-121.762;2023-08-17T03:46:19;99497.32;;;41.13;14.80
49529;BME280;35423;37.320;-121.762;2023-08-17T03:48:46;99496.92;;;41.08;14.87
49529;BME280;35423;37.320;-121.762;2023-08-17T03:51:12;99504.41;;;41.24;14.93
49529;BME280;35423;37.320;-121.762;2023-08-17T03:53:37;99509.64;;;40.88;14.97
49529;BME280;35423;37.320;-121.762;2023-08-17T03:56:13;99510.67;;;40.93;15.06
49529;BME280;35423;37.320;-121.762;2023-08-17T03:58:40;99513.41;;;40.80;15.11
49529;BME280;35423;37.320;-121.762;2023-08-17T04:01:09;99515.03;;;40.86;15.18
49529;BME280;35423;37.320;-121.762;2023-08-17T04:03:42;99517.03;;;40.69;15.19
49529;BME280;35423;37.320;-121.762;2023-08-17T04:06:09;99520.54;;;40.51;15.28
49529;BME280;35423;37.320;-121.762;2023-08-17T04:08:34;99521.98;;;40.18;15.34
49529;BME280;35423;37.320;-121.762;2023-08-17T04:11:00;99522.20;;;40.00;15.43
49529;BME280;35423;37.320;-121.762;2023-08-17T04:13:28;99528.16;;;40.16;15.48
49529;BME280;35423;37.320;-121.762;2023-08-17T04:15:56;99531.97;;;40.06;15.54
49529;BME280;35423;37.320;-121.762;2023-08-17T04:18:19;99530.10;;;39.78;15.60
49529;BME280;35423;37.320;-121.762;2023-08-17T04:20:46;99530.73;;;39.58;15.67
49529;BME280;35423;37.320;-121.762;2023-08-17T04:23:16;99535.34;;;39.62;15.74
49529;BME280;35423;37.320;-121.762;2023-08-17T04:25:48;99531.82;;;39.67;15.82
49529;BME280;35423;37.320;-121.762;2023-08-17T04:28:22;99534.27;;;39.58;15.84
49529;BME280;35423;37.320;-121.762;2023-08-17T04:30:51;99539.85;;;39.41;15.90
49529;BME280;35423;37.320;-121.762;2023-08-17T04:33:21;99544.48;;;39.56;15.97
49529;BME280;35423;37.320;-121.762;2023-08-17T04:35:50;99541.83;;;39.12;16.07
49529;BME280;35423;37.320;-121.762;2023-08-17T04:38:12;99542.18;;;39.04;16.06
49529;BME280;35423;37.320;-121.762;2023-08-17T04:40:49;99544.82;;;39.22;16.08
49529;BME280;35423;37.320;-121.762;2023-08-17T04:43:17;99548.06;;;38.94;16.07
49529;BME280;35423;37.320;-121.762;2023-08-17T04:45:49;99548.38;;;38.84;16.12
49529;BME280;35423;37.320;-121.762;2023-08-17T04:48:16;99548.67;;;39.00;16.18
49529;BME280;35423;37.320;-121.762;2023-08-17T04:50:42;99545.21;;;38.84;16.27
49529;BME280;35423;37.320;-121.762;2023-08-17T04:53:08;99548.20;;;38.45;16.36
49529;BME280;35423;37.320;-121.762;2023-08-17T04:55:39;99553.47;;;38.79;16.44
49529;BME280;35423;37.320;-121.762;2023-08-17T04:58:04;99554.78;;;38.69;16.55
49529;BME280;35423;37.320;-121.762;2023-08-17T05:00:30;99548.46;;;38.37;16.59
49529;BME280;35423;37.320;-121.762;2023-08-17T05:02:57;99546.87;;;38.52;16.65
49529;BME280;35423;37.320;-121.762;2023-08-17T05:05:25;99551.12;;;38.39;16.76
49529;BME280;35423;37.320;-121.762;2023-08-17T05:07:52;99561.97;;;38.24;16.85
49529;BME280;35423;37.320;-121.762;2023-08-17T05:10:16;99561.60;;;38.12;16.89
49529;BME280;35423;37.320;-121.762;2023-08-17T05:12:44;99549.08;;;38.01;16.93
49529;BME280;35423;37.320;-121.762;2023-08-17T05:15:14;99554.13;;;37.90;17.09
49529;BME280;35423;37.320;-121.762;2023-08-17T05:17:43;99574.06;;;37.79;17.06
49529;BME280;35423;37.320;-121.762;2023-08-17T05:20:15;99564.70;;;37.70;17.06
49529;BME280;35423;37.320;-121.762;2023-08-17T05:22:39;99553.36;;;37.57;17.14
49529;BME280;35423;37.320;-121.762;2023-08-17T05:25:10;99569.35;;;36.59;17.09
49529;BME280;35423;37.320;-121.762;2023-08-17T05:27:30;99574.84;;;37.84;16.83
49529;BME280;35423;37.320;-121.762;2023-08-17T05:30:00;99560.49;;;37.55;16.98
49529;BME280;35423;37.320;-121.762;2023-08-17T05:32:27;99551.70;;;37.33;17.14
49529;BME280;35423;37.320;-121.762;2023-08-17T05:34:54;99557.11;;;37.19;17.27
49529;BME280;35423;37.320;-121.762;2023-08-17T05:37:22;99558.77;;;37.46;17.33
49529;BME280;35423;37.320;-121.762;2023-08-17T05:39:52;99553.05;;;37.35;17.45
49529;BME280;35423;37.320;-121.762;2023-08-17T05:42:23;99550.20;;;37.22;17.58
49529;BME280;35423;37.320;-121.762;2023-08-17T05:44:51;99549.82;;;37.14;17.63
49529;BME280;35423;37.320;-121.762;2023-08-17T05:47:25;99547.01;;;36.80;17.70
49529;BME280;35423;37.320;-121.762;2023-08-17T05:49:42;99547.70;;;37.09;17.67
49529;BME280;35423;37.320;-121.762;2023-08-17T05:52:13;99549.03;;;36.04;17.71
49529;BME280;35423;37.320;-121.762;2023-08-17T05:54:39;99548.39;;;37.07;17.70
49529;BME280;35423;37.320;-121.762;2023-08-17T05:57:05;99550.57;;;36.71;17.79
49529;BME280;35423;37.320;-121.762;2023-08-17T05:59:30;99552.89;;;37.16;17.79
49529;BME280;35423;37.320;-121.762;2023-08-17T06:02:02;99553.92;;;36.57;17.84
49529;BME280;35423;37.320;-121.762;2023-08-17T06:04:25;99553.10;;;36.88;17.80
49529;BME280;35423;37.320;-121.762;2023-08-17T06:07:06;99558.24;;;36.27;17.88
49529;BME280;35423;37.320;-121.762;2023-08-17T06:09:32;99558.10;;;36.79;17.85
49529;BME280;35423;37.320;-121.762;2023-08-17T06:12:03;99556.13;;;36.18;17.97
49529;BME280;35423;37.320;-121.762;2023-08-17T06:14:32;99554.92;;;36.92;17.92
49529;BME280;35423;37.320;-121.762;2023-08-17T06:16:58;99550.65;;;36.53;18.06
49529;BME280;35423;37.320;-121.762;2023-08-17T06:19:23;99550.33;;;36.46;18.11
49529;BME280;35423;37.320;-121.762;2023-08-17T06:21:50;99550.48;;;36.56;18.20
49529;BME280;35423;37.320;-121.762;2023-08-17T06:24:23;99548.65;;;36.60;18.20
49529;BME280;35423;37.320;-121.762;2023-08-17T06:27:00;99548.70;;;36.28;18.26
49529;BME280;35423;37.320;-121.762;2023-08-17T06:29:14;99548.49;;;36.57;18.21
49529;BME280;35423;37.320;-121.762;2023-08-17T06:31:59;99553.09;;;36.20;18.27
49529;BME280;35423;37.320;-121.762;2023-08-17T06:34:24;99555.24;;;36.16;18.29
49529;BME280;35423;37.320;-121.762;2023-08-17T06:37:07;99551.87;;;36.21;18.39
49529;BME280;35423;37.320;-121.762;2023-08-17T06:39:21;99549.56;;;36.52;18.37
49529;BME280;35423;37.320;-121.762;2023-08-17T06:41:44;99550.14;;;36.41;18.44
49529;BME280;35423;37.320;-121.762;2023-08-17T06:44:12;99547.55;;;36.42;18.37
49529;BME280;35423;37.320;-121.762;2023-08-17T06:46:38;99542.24;;;36.00;18.42
49529;BME280;35423;37.320;-121.762;2023-08-17T06:49:04;99539.14;;;36.23;18.40
49529;BME280;35423;37.320;-121.762;2023-08-17T06:51:32;99539.26;;;36.28;18.46
49529;BME280;35423;37.320;-121.762;2023-08-17T06:53:59;99539.69;;;36.17;18.46
49529;BME280;35423;37.320;-121.762;2023-08-17T06:56:25;99543.68;;;35.77;18.52
49529;BME280;35423;37.320;-121.762;2023-08-17T06:58:56;99541.97;;;35.93;18.46
49529;BME280;35423;37.320;-121.762;2023-08-17T07:01:22;99540.73;;;35.56;18.51
49529;BME280;35423;37.320;-121.762;2023-08-17T07:03:51;99541.39;;;35.74;18.49
49529;BME280;35423;37.320;-121.762;2023-08-17T07:06:17;99544.16;;;35.57;18.55
49529;BME280;35423;37.320;-121.762;2023-08-17T07:08:55;99542.56;;;35.51;18.56
49529;BME280;35423;37.320;-121.762;2023-08-17T07:11:21;99542.32;;;35.51;18.69
49529;BME280;35423;37.320;-121.762;2023-08-17T07:13:47;99537.87;;;35.25;18.76
49529;BME280;35423;37.320;-121.762;2023-08-17T07:16:13;99539.68;;;35.33;18.84
49529;BME280;35423;37.320;-121.762;2023-08-17T07:18:41;99540.05;;;35.21;18.88
49529;BME280;35423;37.320;-121.762;2023-08-17T07:21:06;99539.65;;;35.08;19.06
49529;BME280;35423;37.320;-121.762;2023-08-17T07:23:38;99534.10;;;35.08;19.07
49529;BME280;35423;37.320;-121.762;2023-08-17T07:26:03;99532.69;;;34.99;19.15
49529;BME280;35423;37.320;-121.762;2023-08-17T07:28:37;99531.33;;;35.19;19.19
49529;BME280;35423;37.320;-121.762;2023-08-17T07:31:04;99531.36;;;34.82;19.28
49529;BME280;35423;37.320;-121.762;2023-08-17T07:33:29;99526.98;;;34.79;19.32
49529;BME280;35423;37.320;-121.762;2023-08-17T07:35:59;99527.05;;;34.92;19.45
49529;BME280;35423;37.320;-121.762;2023-08-17T07:38:19;99526.45;;;34.60;19.55
49529;BME280;35423;37.320;-121.762;2023-08-17T07:40:45;99526.43;;;34.47;19.65
49529;BME280;35423;37.320;-121.762;2023-08-17T07:43:10;99523.90;;;34.38;19.76
49529;BME280;35423;37.320;-121.762;2023-08-17T07:45:51;99523.00;;;34.30;19.84
49529;BME280;35423;37.320;-121.762;2023-08-17T07:48:14;99524.12;;;34.50;19.96
49529;BME280;35423;37.320;-121.762;2023-08-17T07:50:41;99527.24;;;34.64;20.03
49529;BME280;35423;37.320;-121.762;2023-08-17T07:53:06;99523.96;;;34.16;20.06
49529;BME280;35423;37.320;-121.762;2023-08-17T07:55:32;99522.16;;;34.42;20.08
49529;BME280;35423;37.320;-121.762;2023-08-17T07:57:58;99519.61;;;34.16;20.08
49529;BME280;35423;37.320;-121.762;2023-08-17T08:00:25;99514.85;;;34.62;20.07
49529;BME280;35423;37.320;-121.762;2023-08-17T08:02:52;99513.24;;;34.40;20.06
49529;BME280;35423;37.320;-121.762;2023-08-17T08:05:19;99511.74;;;34.61;20.09
49529;BME280;35423;37.320;-121.762;2023-08-17T08:07:50;99507.96;;;34.35;20.11
49529;BME280;35423;37.320;-121.762;2023-08-17T08:10:16;99503.56;;;34.54;20.13
49529;BME280;35423;37.320;-121.762;2023-08-17T08:12:41;99502.63;;;34.48;20.18
49529;BME280;35423;37.320;-121.762;2023-08-17T08:15:16;99505.04;;;33.99;20.21
49529;BME280;35423;37.320;-121.762;2023-08-17T08:17:41;99503.72;;;34.38;20.26
49529;BME280;35423;37.320;-121.762;2023-08-17T08:20:16;99504.07;;;34.28;20.32
49529;BME280;35423;37.320;-121.762;2023-08-17T08:22:43;99500.90;;;33.96;20.38
49529;BME280;35423;37.320;-121.762;2023-08-17T08:25:09;99492.34;;;34.13;20.36
49529;BME280;35423;37.320;-121.762;2023-08-17T08:27:34;99490.48;;;34.02;20.43
49529;BME280;35423;37.320;-121.762;2023-08-17T08:30:06;99490.98;;;33.98;20.44
49529;BME280;35423;37.320;-121.762;2023-08-17T08:32:37;99488.50;;;33.89;20.53
49529;BME280;35423;37.320;-121.762;2023-08-17T08:35:04;99485.13;;;33.81;20.62
49529;BME280;35423;37.320;-121.762;2023-08-17T08:37:24;99481.91;;;33.44;20.75
49529;BME280;35423;37.320;-121.762;2023-08-17T08:39:53;99480.89;;;33.63;20.69
49529;BME280;35423;37.320;-121.762;2023-08-17T08:42:19;99483.62;;;33.51;20.82
49529;BME280;35423;37.320;-121.762;2023-08-17T08:44:50;99483.76;;;33.43;20.88
49529;BME280;35423;37.320;-121.762;2023-08-17T08:47:16;99479.34;;;33.31;20.94
49529;BME280;35423;37.320;-121.762;2023-08-17T08:49:44;99476.24;;;33.21;21.04
49529;BME280;35423;37.320;-121.762;2023-08-17T08:52:22;99473.58;;;32.80;21.23
49529;BME280;35423;37.320;-121.762;2023-08-17T08:54:45;99471.50;;;33.47;21.21
49529;BME280;35423;37.320;-121.762;2023-08-17T08:57:12;99468.67;;;32.88;21.26
49529;BME280;35423;37.320;-121.762;2023-08-17T08:59:34;99471.41;;;33.05;21.27
49529;BME280;35423;37.320;-121.762;2023-08-17T09:02:15;99470.97;;;32.69;21.32
49529;BME280;35423;37.320;-121.762;2023-08-17T09:04:41;99468.34;;;33.16;21.33
49529;BME280;35423;37.320;-121.762;2023-08-17T09:07:12;99465.40;;;32.55;21.45
49529;BME280;35423;37.320;-121.762;2023-08-17T09:09:39;99464.33;;;33.02;21.48
49529;BME280;35423;37.320;-121.762;2023-08-17T09:12:04;99461.02;;;32.40;21.54
49529;BME280;35423;37.320;-121.762;2023-08-17T09:14:29;99464.57;;;33.08;21.53
49529;BME280;35423;37.320;-121.762;2023-08-17T09:17:02;99463.48;;;32.26;21.66
49529;BME280;35423;37.320;-121.762;2023-08-17T09:19:26;99462.27;;;32.39;21.78
49529;BME280;35423;37.320;-121.762;2023-08-17T09:21:56;99460.54;;;32.33;21.77
49529;BME280;35423;37.320;-121.762;2023-08-17T09:24:23;99459.37;;;32.62;21.77
49529;BME280;35423;37.320;-121.762;2023-08-17T09:26:57;99459.27;;;32.27;21.81
49529;BME280;35423;37.320;-121.762;2023-08-17T09:29:23;99456.21;;;32.49;21.85
49529;BME280;35423;37.320;-121.762;2023-08-17T09:31:51;99452.41;;;32.40;21.92
49529;BME280;35423;37.320;-121.762;2023-08-17T09:34:18;99447.73;;;32.42;21.88
49529;BME280;35423;37.320;-121.762;2023-08-17T09:36:45;99445.79;;;32.54;21.94
49529;BME280;35423;37.320;-121.762;2023-08-17T09:39:07;99443.72;;;32.32;21.96
49529;BME280;35423;37.320;-121.762;2023-08-17T09:44:13;99436.21;;;32.46;22.08
49529;BME280;35423;37.320;-121.762;2023-08-17T09:46:39;99433.69;;;32.37;22.18
49529;BME280;35423;37.320;-121.762;2023-08-17T09:49:06;99433.05;;;32.58;22.28
49529;BME280;35423;37.320;-121.762;2023-08-17T09:51:35;99437.79;;;32.16;22.37
49529;BME280;35423;37.320;-121.762;2023-08-17T09:53:59;99439.98;;;31.89;22.41
49529;BME280;35423;37.320;-121.762;2023-08-17T09:56:27;99440.26;;;32.04;22.46
49529;BME280;35423;37.320;-121.762;2023-08-17T09:59:00;99437.00;;;31.88;22.42
49529;BME280;35423;37.320;-121.762;2023-08-17T10:01:25;99437.12;;;31.98;22.58
49529;BME280;35423;37.320;-121.762;2023-08-17T10:03:50;99435.26;;;31.79;22.54
49529;BME280;35423;37.320;-121.762;2023-08-17T10:06:18;99429.11;;;31.93;22.59
49529;BME280;35423;37.320;-121.762;2023-08-17T10:08:47;99428.22;;;31.65;22.58
49529;BME280;35423;37.320;-121.762;2023-08-17T10:11:12;99426.46;;;32.05;22.68
49529;BME280;35423;37.320;-121.762;2023-08-17T10:13:48;99420.39;;;31.81;22.68
49529;BME280;35423;37.320;-121.762;2023-08-17T10:16:18;99420.52;;;31.73;22.77
49529;BME280;35423;37.320;-121.762;2023-08-17T10:18:49;99416.59;;;31.92;22.84
49529;BME280;35423;37.320;-121.762;2023-08-17T10:21:13;99416.88;;;31.57;22.94
49529;BME280;35423;37.320;-121.762;2023-08-17T10:23:42;99413.93;;;31.81;22.93
49529;BME280;35423;37.320;-121.762;2023-08-17T10:26:13;99413.21;;;31.71;23.00
49529;BME280;35423;37.320;-121.762;2023-08-17T10:29:05;99411.39;;;31.70;22.96
49529;BME280;35423;37.320;-121.762;2023-08-17T10:31:34;99409.54;;;31.37;23.01
49529;BME280;35423;37.320;-121.762;2023-08-17T10:33:57;99408.62;;;31.66;23.00
49529;BME280;35423;37.320;-121.762;2023-08-17T10:36:23;99408.19;;;31.60;23.07
49529;BME280;35423;37.320;-121.762;2023-08-17T10:41:18;99403.73;;;31.55;23.11
49529;BME280;35423;37.320;-121.762;2023-08-17T10:43:55;99399.86;;;31.61;23.06
49529;BME280;35423;37.320;-121.762;2023-08-17T10:49:25;99397.38;;;31.42;23.23
49529;BME280;35423;37.320;-121.762;2023-08-17T10:54:09;99396.32;;;31.09;23.36
49529;BME280;35423;37.320;-121.762;2023-08-17T10:56:34;99397.00;;;31.21;23.56
49529;BME280;35423;37.320;-121.762;2023-08-17T10:59:05;99398.73;;;31.19;23.62
49529;BME280;35423;37.320;-121.762;2023-08-17T11:01:35;99401.75;;;31.11;23.64
49529;BME280;35423;37.320;-121.762;2023-08-17T11:04:24;99400.58;;;31.56;23.63
49529;BME280;35423;37.320;-121.762;2023-08-17T11:09:15;99401.85;;;31.06;23.76
49529;BME280;35423;37.320;-121.762;2023-08-17T11:11:52;99402.01;;;30.69;23.89
49529;BME280;35423;37.320;-121.762;2023-08-17T11:14:18;99398.78;;;31.28;23.86
49529;BME280;35423;37.320;-121.762;2023-08-17T11:16:47;99397.64;;;31.12;23.98
49529;BME280;35423;37.320;-121.762;2023-08-17T11:19:17;99396.39;;;31.41;23.92
49529;BME280;35423;37.320;-121.762;2023-08-17T11:21:44;99399.48;;;30.81;24.14
49529;BME280;35423;37.320;-121.762;2023-08-17T11:24:14;99402.86;;;31.29;24.13
49529;BME280;35423;37.320;-121.762;2023-08-17T11:26:40;99402.92;;;30.91;24.29
49529;BME280;35423;37.320;-121.762;2023-08-17T11:29:10;99401.63;;;30.72;24.31
49529;BME280;35423;37.320;-121.762;2023-08-17T11:31:39;99401.82;;;30.81;24.49
49529;BME280;35423;37.320;-121.762;2023-08-17T11:34:04;99401.95;;;30.99;24.53
49529;BME280;35423;37.320;-121.762;2023-08-17T11:36:32;99407.34;;;30.86;24.72
49529;BME280;35423;37.320;-121.762;2023-08-17T11:39:00;99405.47;;;30.82;24.85
49529;BME280;35423;37.320;-121.762;2023-08-17T11:41:25;99406.31;;;30.69;24.99
49529;BME280;35423;37.320;-121.762;2023-08-17T11:43:53;99407.64;;;30.49;25.02
49529;BME280;35423;37.320;-121.762;2023-08-17T11:46:17;99406.53;;;30.64;25.17
49529;BME280;35423;37.320;-121.762;2023-08-17T11:48:58;99405.64;;;30.62;25.28
49529;BME280;35423;37.320;-121.762;2023-08-17T11:53:48;99407.08;;;30.49;25.62
49529;BME280;35423;37.320;-121.762;2023-08-17T11:56:21;99406.73;;;30.86;25.88
49529;BME280;35423;37.320;-121.762;2023-08-17T11:58:48;99408.79;;;30.37;26.03
49529;BME280;35423;37.320;-121.762;2023-08-17T12:01:13;99409.78;;;30.26;26.24
49529;BME280;35423;37.320;-121.762;2023-08-17T12:03:42;99414.84;;;30.45;26.32
49529;BME280;35423;37.320;-121.762;2023-08-17T12:06:10;99415.66;;;30.31;26.56
49529;BME280;35423;37.320;-121.762;2023-08-17T12:08:46;99419.84;;;29.97;26.76
49529;BME280;35423;37.320;-121.762;2023-08-17T12:11:00;99420.00;;;29.84;26.97
49529;BME280;35423;37.320;-121.762;2023-08-17T12:13:38;99422.85;;;30.01;27.05
49529;BME280;35423;37.320;-121.762;2023-08-17T12:16:05;99426.45;;;30.16;27.21
49529;BME280;35423;37.320;-121.762;2023-08-17T12:18:36;99427.07;;;29.85;27.25
49529;BME280;35423;37.320;-121.762;2023-08-17T12:21:03;99429.48;;;29.51;27.38
49529;BME280;35423;37.320;-121.762;2023-08-17T12:23:28;99434.69;;;29.96;27.49
49529;BME280;35423;37.320;-121.762;2023-08-17T12:25:57;99437.07;;;29.89;27.57
49529;BME280;35423;37.320;-121.762;2023-08-17T12:28:40;99438.05;;;29.86;27.60
49529;BME280;35423;37.320;-121.762;2023-08-17T12:31:01;99441.20;;;29.59;27.61
49529;BME280;35423;37.320;-121.762;2023-08-17T12:33:22;99446.11;;;29.74;27.70
49529;BME280;35423;37.320;-121.762;2023-08-17T12:35:50;99446.58;;;29.45;27.74
49529;BME280;35423;37.320;-121.762;2023-08-17T12:38:16;99449.28;;;29.40;27.83
49529;BME280;35423;37.320;-121.762;2023-08-17T12:40:50;99454.00;;;29.55;27.85
49529;BME280;35423;37.320;-121.762;2023-08-17T12:43:21;99452.24;;;29.50;27.94
49529;BME280;35423;37.320;-121.762;2023-08-17T12:45:48;99454.23;;;29.46;27.95
49529;BME280;35423;37.320;-121.762;2023-08-17T12:48:16;99457.57;;;29.40;28.06
49529;BME280;35423;37.320;-121.762;2023-08-17T12:50:42;99461.37;;;29.35;28.09